Fernwood, New York
Current Conditions -  °F | °C
As of 6:54 AM on Sunday 21 Dec 2014 (Local Time) from KFZY Reporting Station
Overcast Overcast  
Wind Chill: 27°   Ceiling: 2300
Heat Index: 27°   Visibility: 10mi
Dew Point: 21°   Wind: 3mph
Humidity: 78%   Direction: 120°ESE
Pressure: 30.29"   Gusts: NA
Location:  43.5166°N, 76.1253°W
Report Text: KFZY 211154Z AUTO 12003KT 10SM OVC023 M03/M06 A3029 RMK AO2 SLP266 T10281061 11028 21039 53002
Loading
Personal Weather Stations






























Interactive Weather Map New forecast layout! Learn more

10-Day Weather Forecast

Advertisements
Track Severe Weather on mobile